LFKC/CLY METAR and TAF weather

Enter ICAO airport designator
Station Type Date Time Source
LFKC METAR 2021/01/16 02:30 UTC NOAA

LFKC 160230Z AUTO VRB03KT 9999 FEW062 03/02 Q1016


Station Type Date Time Source
LFKC Decoded METAR 2021/01/16 02:30 UTC NOAA

Calvi, France (LFKC) 42-32N 008-48E 58M
Jan 15, 2021 - 09:30 PM EST / 2021.01.16 0230 UTC
Wind: Variable at 3 MPH (3 KT):0
Visibility: greater than 7 mile(s):0
Sky conditions: mostly clear
Temperature: 37 F (3 C)
Dew Point: 35 F (2 C)
Relative Humidity: 93%
Pressure (altimeter): 30.00 in. Hg (1016 hPa)
ob: LFKC 160230Z AUTO VRB03KT 9999 FEW062 03/02 Q1016
cycle: 2

Station Type Date Time Source
LFKC TAF 2021/01/16 03:21 UTC NOAA

TAF LFKC 160200Z 1603/1703 18006KT 9999 FEW060 TX12/1612Z TN03/1605Z
BECMG 1610/1612 02010KT
BECMG 1700/1702 21015G25KT SCT030TCU

Example: see airport list